Appleton City, MO

6:33 PM CDT on August 17, 2019 (GMT -0500)
Hudson | | Change Station
Active Advisory: Flood Warning

Elev 860 ft 38.20 °N, 94.11 °W | Updated 5 minutes ago

Clear
Clear
82.4 °F
Feels Like 90 °F
N
3
Wind Variable Wind from SSE
Gusts 8.0 mph

Today
High -- | Low -- °F
--% Chance of Precip.
Yesterday
High -- | Low -- °F
Precip. -- in
Pressure 29.81 in
Visibility 10.0 miles
Clouds Clear
Heat Index 90 °F
Dew Point 75 °F
Humidity 80%
Rainfall 0.30 in
Snow Depth Not available.
6:32 AM 8:07 PM
Waning Gibbous, 95% visible
METAR KGLY 172315Z AUTO 14005KT 10SM CLR 28/23 A2981 RMK AO2
Pressure 29.81 in
Visibility 10.0 miles
Clouds Clear
Heat Index 90 °F
Dew Point 75 °F
Humidity 80%
Rainfall 0.30 in
Snow Depth Not available.
6:32 AM 8:07 PM
Waning Gibbous, 95% visible
METAR KGLY 172315Z AUTO 14005KT 10SM CLR 28/23 A2981 RMK AO2

Get Your Daily Forecast Email!

Thanks for signing up!

Be on the lookout for a verification email in your inbox.

You'll start receiving severe weather alerts in your inbox..

×

10-Day Weather Forecast

Almanac

Astronomy

Aug. 17, 2019 Rise Set
Actual Time
Civil Twilight
Nautical Twilight
Astronomical Twilight
Moon
Length of Visible Light
Length of Day
Tomorrow will be .
, % of the Moon is Illuminated

Today's Extremes

State Highs State Lows

Community

WunderPhotos

Category 6

Welcome to Category 6. This is the collective home for Weather Underground's featured writeups by Dr. Jeff Masters (right), Bob Henson (left), Chris Burt, and other regular contributors.

Nearby

Air Quality

  Air Quality AQ Index Pollutant
Not available.

Snow Depth

Station Depth Elevation

Earthquake Activity

City Distance Mag. Time & Date
Minimum magnitude displayed is 2.5.

Coastal Water Temperatures

Place Temperature

Stations

Nearby Weather Stations

Station Location Temp. Windchill Dew Point Humidity Wind Precip. Elev Updated Type
                   

Watches & Warnings

Flood Warning
Issued: 9:32 PM GMT Aug. 17, 2019 – National Weather Service

... For the Osage river at Taberville...
* at 3:45 PM Saturday the stage was 23.2 feet.
* Flood stage is 23.0 feet.
* Minor flooding is occurring and minor flooding is forecast.
* Forecast... the river will continue rising to near 25.3 feet by
Tuesday morning. The river will fall below flood stage Thursday
morning.




               Flood observed forecast 7 am

Location stage stage day time sun Mon Tue

Osage river basin
Taberville 23 23.2 Sat 04 PM 24.7 25.2 25.3




Lat... Lon 3805 9406 3802 9379 3796 9379 3799 9406